sensor_id;sensor_type;location;lat;lon;timestamp;pressure;altitude;pressure_sealevel;temperature;humidity
28354;BME280;15603;50.878;8.036;2023-04-30T00:01:00;145138.31;;;7.93;100.00
28354;BME280;15603;50.878;8.036;2023-04-30T00:03:28;145128.59;;;7.89;100.00
28354;BME280;15603;50.878;8.036;2023-04-30T00:05:55;145111.59;;;7.82;100.00
28354;BME280;15603;50.878;8.036;2023-04-30T00:08:22;145087.31;;;7.72;100.00
28354;BME280;15603;50.878;8.036;2023-04-30T00:10:49;145077.63;;;7.67;100.00
28354;BME280;15603;50.878;8.036;2023-04-30T00:13:17;145030.34;;;7.47;100.00
28354;BME280;15603;50.878;8.036;2023-04-30T00:15:44;145058.22;;;7.59;100.00
28354;BME280;15603;50.878;8.036;2023-04-30T00:18:11;145081.25;;;7.69;100.00
28354;BME280;15603;50.878;8.036;2023-04-30T00:20:39;145087.31;;;7.72;100.00
28354;BME280;15603;50.878;8.036;2023-04-30T00:23:06;145067.91;;;7.63;100.00
28354;BME280;15603;50.878;8.036;2023-04-30T00:25:34;145075.22;;;7.66;100.00
28354;BME280;15603;50.878;8.036;2023-04-30T00:28:01;145021.84;;;7.44;100.00
28354;BME280;15603;50.878;8.036;2023-04-30T00:30:28;145041.22;;;7.52;100.00
28354;BME280;15603;50.878;8.036;2023-04-30T00:32:55;145009.69;;;7.39;100.00
28354;BME280;15603;50.878;8.036;2023-04-30T00:35:22;144967.28;;;7.21;100.00
28354;BME280;15603;50.878;8.036;2023-04-30T00:37:49;144898.16;;;6.92;100.00
28354;BME280;15603;50.878;8.036;2023-04-30T00:40:16;144917.56;;;7.00;100.00
28354;BME280;15603;50.878;8.036;2023-04-30T00:42:43;144936.94;;;7.08;100.00
28354;BME280;15603;50.878;8.036;2023-04-30T00:45:10;144949.09;;;7.13;100.00
28354;BME280;15603;50.878;8.036;2023-04-30T00:47:38;144963.63;;;7.19;100.00
28354;BME280;15603;50.878;8.036;2023-04-30T00:50:06;144907.88;;;6.96;100.00
28354;BME280;15603;50.878;8.036;2023-04-30T00:52:33;144909.06;;;6.96;100.00
28354;BME280;15603;50.878;8.036;2023-04-30T00:55:01;144929.69;;;7.05;100.00
28354;BME280;15603;50.878;8.036;2023-04-30T00:57:28;144906.66;;;6.95;100.00
28354;BME280;15603;50.878;8.036;2023-04-30T00:59:55;144904.22;;;6.94;100.00
28354;BME280;15603;50.878;8.036;2023-04-30T01:02:22;144865.44;;;6.78;100.00
28354;BME280;15603;50.878;8.036;2023-04-30T01:04:50;144838.78;;;6.66;100.00
28354;BME280;15603;50.878;8.036;2023-04-30T01:07:17;144901.81;;;6.93;100.00
28354;BME280;15603;50.878;8.036;2023-04-30T01:09:44;144888.47;;;6.87;100.00
28354;BME280;15603;50.878;8.036;2023-04-30T01:12:19;144869.06;;;6.79;100.00
28354;BME280;15603;50.878;8.036;2023-04-30T01:15:26;144859.34;;;6.75;100.00
28354;BME280;15603;50.878;8.036;2023-04-30T01:17:57;144842.41;;;6.68;100.00
28354;BME280;15603;50.878;8.036;2023-04-30T01:20:29;144837.56;;;6.66;100.00
28354;BME280;15603;50.878;8.036;2023-04-30T01:23:10;144808.47;;;6.54;100.00
28354;BME280;15603;50.878;8.036;2023-04-30T01:25:52;144787.88;;;6.45;100.00
28354;BME280;15603;50.878;8.036;2023-04-30T01:28:24;144787.88;;;6.45;100.00
28354;BME280;15603;50.878;8.036;2023-04-30T01:30:51;144743.03;;;6.26;100.00
28354;BME280;15603;50.878;8.036;2023-04-30T01:33:19;144772.09;;;6.38;100.00
28354;BME280;15603;50.878;8.036;2023-04-30T01:47:38;144745.44;;;6.27;100.00
28354;BME280;15603;50.878;8.036;2023-04-30T01:52:45;144745.44;;;6.27;100.00
28354;BME280;15603;50.878;8.036;2023-04-30T01:55:40;144762.41;;;6.34;100.00
28354;BME280;15603;50.878;8.036;2023-04-30T01:58:11;144766.06;;;6.36;100.00
28354;BME280;15603;50.878;8.036;2023-04-30T02:00:39;144774.56;;;6.39;100.00
28354;BME280;15603;50.878;8.036;2023-04-30T02:03:07;144764.88;;;6.35;100.00
28354;BME280;15603;50.878;8.036;2023-04-30T02:05:34;144761.22;;;6.34;100.00
28354;BME280;15603;50.878;8.036;2023-04-30T02:08:01;144759.97;;;6.33;100.00
28354;BME280;15603;50.878;8.036;2023-04-30T02:10:29;144763.63;;;6.35;100.00
28354;BME280;15603;50.878;8.036;2023-04-30T02:12:56;144728.50;;;6.20;100.00
28354;BME280;15603;50.878;8.036;2023-04-30T02:15:23;144779.41;;;6.41;100.00
28354;BME280;15603;50.878;8.036;2023-04-30T02:17:50;144762.41;;;6.34;100.00
28354;BME280;15603;50.878;8.036;2023-04-30T02:20:17;144819.41;;;6.58;100.00
28354;BME280;15603;50.878;8.036;2023-04-30T02:22:45;144837.56;;;6.66;100.00
28354;BME280;15603;50.878;8.036;2023-04-30T02:25:12;144747.88;;;6.28;100.00
28354;BME280;15603;50.878;8.036;2023-04-30T02:27:40;144766.06;;;6.36;100.00
28354;BME280;15603;50.878;8.036;2023-04-30T02:30:07;144796.31;;;6.48;100.00
28354;BME280;15603;50.878;8.036;2023-04-30T02:32:34;144705.44;;;6.10;100.00
28354;BME280;15603;50.878;8.036;2023-04-30T02:35:01;144721.22;;;6.17;100.00
28354;BME280;15603;50.878;8.036;2023-04-30T02:37:28;144755.13;;;6.31;100.00
28354;BME280;15603;50.878;8.036;2023-04-30T02:39:56;144716.38;;;6.15;100.00
28354;BME280;15603;50.878;8.036;2023-04-30T02:42:24;144738.19;;;6.24;100.00
28354;BME280;15603;50.878;8.036;2023-04-30T02:44:51;144689.72;;;6.03;100.00
28354;BME280;15603;50.878;8.036;2023-04-30T02:47:18;144733.34;;;6.22;100.00
28354;BME280;15603;50.878;8.036;2023-04-30T02:49:46;144721.22;;;6.17;100.00
28354;BME280;15603;50.878;8.036;2023-04-30T02:52:13;144747.88;;;6.28;100.00
28354;BME280;15603;50.878;8.036;2023-04-30T02:54:40;144757.56;;;6.32;100.00
28354;BME280;15603;50.878;8.036;2023-04-30T02:57:07;144718.78;;;6.16;100.00
28354;BME280;15603;50.878;8.036;2023-04-30T02:59:34;144699.41;;;6.07;100.00
28354;BME280;15603;50.878;8.036;2023-04-30T03:02:01;144718.78;;;6.16;100.00
28354;BME280;15603;50.878;8.036;2023-04-30T03:04:29;144718.78;;;6.16;100.00
28354;BME280;15603;50.878;8.036;2023-04-30T03:06:56;144711.53;;;6.13;100.00
28354;BME280;15603;50.878;8.036;2023-04-30T03:09:23;144688.53;;;6.03;100.00
28354;BME280;15603;50.878;8.036;2023-04-30T03:11:50;144675.19;;;5.97;100.00
28354;BME280;15603;50.878;8.036;2023-04-30T03:14:17;144706.69;;;6.11;100.00
28354;BME280;15603;50.878;8.036;2023-04-30T03:16:44;144718.78;;;6.16;100.00
28354;BME280;15603;50.878;8.036;2023-04-30T03:19:11;144699.41;;;6.07;100.00
28354;BME280;15603;50.878;8.036;2023-04-30T03:21:39;144650.91;;;5.87;100.00
28354;BME280;15603;50.878;8.036;2023-04-30T03:24:06;144711.53;;;6.13;100.00
28354;BME280;15603;50.878;8.036;2023-04-30T03:26:34;144692.16;;;6.04;100.00
28354;BME280;15603;50.878;8.036;2023-04-30T03:29:01;144677.59;;;5.98;100.00
28354;BME280;15603;50.878;8.036;2023-04-30T03:31:28;144629.13;;;5.78;100.00
28354;BME280;15603;50.878;8.036;2023-04-30T03:33:55;144675.19;;;5.97;100.00
28354;BME280;15603;50.878;8.036;2023-04-30T03:36:22;144658.19;;;5.90;100.00
28354;BME280;15603;50.878;8.036;2023-04-30T03:38:49;144658.19;;;5.90;100.00
28354;BME280;15603;50.878;8.036;2023-04-30T03:41:17;144629.13;;;5.78;100.00
28354;BME280;15603;50.878;8.036;2023-04-30T03:43:44;144646.06;;;5.85;100.00
28354;BME280;15603;50.878;8.036;2023-04-30T03:46:12;144646.06;;;5.85;100.00
28354;BME280;15603;50.878;8.036;2023-04-30T03:48:39;144610.97;;;5.70;100.00
28354;BME280;15603;50.878;8.036;2023-04-30T03:51:06;144583.09;;;5.58;100.00
28354;BME280;15603;50.878;8.036;2023-04-30T03:53:33;144617.00;;;5.73;100.00
28354;BME280;15603;50.878;8.036;2023-04-30T03:56:00;144635.16;;;5.80;100.00
28354;BME280;15603;50.878;8.036;2023-04-30T03:58:28;144607.31;;;5.68;100.00
28354;BME280;15603;50.878;8.036;2023-04-30T04:00:55;144624.28;;;5.76;100.00
28354;BME280;15603;50.878;8.036;2023-04-30T04:03:23;144570.97;;;5.53;100.00
28354;BME280;15603;50.878;8.036;2023-04-30T04:05:50;144602.47;;;5.66;100.00
28354;BME280;15603;50.878;8.036;2023-04-30T04:08:17;144650.91;;;5.87;100.00
28354;BME280;15603;50.878;8.036;2023-04-30T04:10:44;144597.63;;;5.64;100.00
28354;BME280;15603;50.878;8.036;2023-04-30T04:13:11;144589.16;;;5.61;100.00
28354;BME280;15603;50.878;8.036;2023-04-30T04:15:39;144532.22;;;5.37;100.00
28354;BME280;15603;50.878;8.036;2023-04-30T04:18:06;144474.13;;;5.12;100.00
28354;BME280;15603;50.878;8.036;2023-04-30T04:20:34;144510.44;;;5.27;100.00
28354;BME280;15603;50.878;8.036;2023-04-30T04:23:02;144504.38;;;5.25;100.00
28354;BME280;15603;50.878;8.036;2023-04-30T04:25:29;144478.97;;;5.14;100.00
28354;BME280;15603;50.878;8.036;2023-04-30T04:27:56;144482.56;;;5.16;100.00
28354;BME280;15603;50.878;8.036;2023-04-30T04:30:23;144534.66;;;5.38;100.00
28354;BME280;15603;50.878;8.036;2023-04-30T04:32:50;144515.28;;;5.29;100.00
28354;BME280;15603;50.878;8.036;2023-04-30T04:35:19;144521.34;;;5.32;100.00
28354;BME280;15603;50.878;8.036;2023-04-30T04:37:47;144551.63;;;5.45;100.00
28354;BME280;15603;50.878;8.036;2023-04-30T04:40:14;144527.38;;;5.35;100.00
28354;BME280;15603;50.878;8.036;2023-04-30T04:42:41;144541.88;;;5.41;100.00
28354;BME280;15603;50.878;8.036;2023-04-30T04:45:08;144500.72;;;5.23;100.00
28354;BME280;15603;50.878;8.036;2023-04-30T04:47:36;144478.97;;;5.14;100.00
28354;BME280;15603;50.878;8.036;2023-04-30T04:50:04;144529.81;;;5.36;100.00
28354;BME280;15603;50.878;8.036;2023-04-30T04:52:31;144523.72;;;5.33;100.00
28354;BME280;15603;50.878;8.036;2023-04-30T04:54:58;144483.81;;;5.16;100.00
28354;BME280;15603;50.878;8.036;2023-04-30T04:57:25;144491.03;;;5.19;100.00
28354;BME280;15603;50.878;8.036;2023-04-30T04:59:53;144481.38;;;5.15;100.00
28354;BME280;15603;50.878;8.036;2023-04-30T05:02:20;144478.97;;;5.14;100.00
28354;BME280;15603;50.878;8.036;2023-04-30T05:04:50;144446.25;;;5.00;100.00
28354;BME280;15603;50.878;8.036;2023-04-30T05:07:18;144512.84;;;5.28;100.00
28354;BME280;15603;50.878;8.036;2023-04-30T05:09:45;144512.84;;;5.28;100.00
28354;BME280;15603;50.878;8.036;2023-04-30T05:12:13;144549.19;;;5.44;100.00
28354;BME280;15603;50.878;8.036;2023-04-30T05:14:40;144558.84;;;5.48;100.00
28354;BME280;15603;50.878;8.036;2023-04-30T05:17:08;144562.50;;;5.49;100.00
28354;BME280;15603;50.878;8.036;2023-04-30T05:19:36;144601.28;;;5.66;100.00
28354;BME280;15603;50.878;8.036;2023-04-30T05:22:03;144546.78;;;5.43;100.00
28354;BME280;15603;50.878;8.036;2023-04-30T05:24:30;144515.28;;;5.29;100.00
28354;BME280;15603;50.878;8.036;2023-04-30T05:26:57;144537.06;;;5.39;100.00
28354;BME280;15603;50.878;8.036;2023-04-30T05:29:24;144577.03;;;5.56;100.00
28354;BME280;15603;50.878;8.036;2023-04-30T05:31:51;144512.84;;;5.28;100.00
28354;BME280;15603;50.878;8.036;2023-04-30T05:34:19;144522.53;;;5.32;100.00
28354;BME280;15603;50.878;8.036;2023-04-30T05:36:46;144592.78;;;5.62;100.00
28354;BME280;15603;50.878;8.036;2023-04-30T05:39:13;144568.53;;;5.52;100.00
28354;BME280;15603;50.878;8.036;2023-04-30T05:41:40;144500.72;;;5.23;100.00
28354;BME280;15603;50.878;8.036;2023-04-30T05:44:07;144533.47;;;5.37;100.00
28354;BME280;15603;50.878;8.036;2023-04-30T05:46:34;144598.84;;;5.65;100.00
28354;BME280;15603;50.878;8.036;2023-04-30T05:49:01;144630.31;;;5.78;100.00
28354;BME280;15603;50.878;8.036;2023-04-30T05:51:28;144636.38;;;5.81;100.00
28354;BME280;15603;50.878;8.036;2023-04-30T05:53:55;144684.88;;;6.01;100.00
28354;BME280;15603;50.878;8.036;2023-04-30T05:56:23;144670.34;;;5.95;100.00
28354;BME280;15603;50.878;8.036;2023-04-30T05:58:51;144711.53;;;6.13;100.00
28354;BME280;15603;50.878;8.036;2023-04-30T06:01:19;144672.75;;;5.96;100.00
28354;BME280;15603;50.878;8.036;2023-04-30T06:03:46;144749.09;;;6.28;100.00
28354;BME280;15603;50.878;8.036;2023-04-30T06:06:13;144761.22;;;6.34;100.00
28354;BME280;15603;50.878;8.036;2023-04-30T06:08:41;144855.75;;;6.74;100.00
28354;BME280;15603;50.878;8.036;2023-04-30T06:11:11;144786.63;;;6.44;100.00
28354;BME280;15603;50.878;8.036;2023-04-30T06:13:39;144796.31;;;6.48;100.00
28354;BME280;15603;50.878;8.036;2023-04-30T06:16:06;144789.09;;;6.45;100.00
28354;BME280;15603;50.878;8.036;2023-04-30T06:18:34;144783.03;;;6.43;100.00
28354;BME280;15603;50.878;8.036;2023-04-30T06:21:01;144767.25;;;6.36;100.00
28354;BME280;15603;50.878;8.036;2023-04-30T06:23:28;144787.88;;;6.45;100.00
28354;BME280;15603;50.878;8.036;2023-04-30T06:25:55;144745.44;;;6.27;100.00
28354;BME280;15603;50.878;8.036;2023-04-30T06:28:23;144792.72;;;6.47;100.00
28354;BME280;15603;50.878;8.036;2023-04-30T06:30:50;144796.31;;;6.48;100.00
28354;BME280;15603;50.878;8.036;2023-04-30T06:33:17;144896.97;;;6.91;100.00
28354;BME280;15603;50.878;8.036;2023-04-30T06:35:45;144898.16;;;6.92;100.00
28354;BME280;15603;50.878;8.036;2023-04-30T06:38:12;144944.22;;;7.11;100.00
28354;BME280;15603;50.878;8.036;2023-04-30T06:40:40;144941.78;;;7.10;100.00
28354;BME280;15603;50.878;8.036;2023-04-30T06:43:07;144920.00;;;7.01;100.00
28354;BME280;15603;50.878;8.036;2023-04-30T06:45:34;144997.59;;;7.34;100.00
28354;BME280;15603;50.878;8.036;2023-04-30T06:48:01;144957.56;;;7.17;100.00
28354;BME280;15603;50.878;8.036;2023-04-30T06:50:28;145004.84;;;7.37;100.00
28354;BME280;15603;50.878;8.036;2023-04-30T06:52:55;145007.28;;;7.38;100.00
28354;BME280;15603;50.878;8.036;2023-04-30T06:55:23;145021.84;;;7.44;100.00
28354;BME280;15603;50.878;8.036;2023-04-30T06:57:50;145114.00;;;7.83;100.00
28354;BME280;15603;50.878;8.036;2023-04-30T07:00:17;145128.59;;;7.89;100.00
28354;BME280;15603;50.878;8.036;2023-04-30T07:02:45;145169.84;;;8.06;100.00
28354;BME280;15603;50.878;8.036;2023-04-30T07:05:13;145162.53;;;8.03;100.00
28354;BME280;15603;50.878;8.036;2023-04-30T07:07:42;145211.09;;;8.24;100.00
28354;BME280;15603;50.878;8.036;2023-04-30T07:10:09;145281.50;;;8.54;100.00
28354;BME280;15603;50.878;8.036;2023-04-30T07:12:36;145340.97;;;8.79;100.00
28354;BME280;15603;50.878;8.036;2023-04-30T07:15:03;145300.91;;;8.62;100.00
28354;BME280;15603;50.878;8.036;2023-04-30T07:17:30;145327.63;;;8.73;100.00
28354;BME280;15603;50.878;8.036;2023-04-30T07:19:57;145364.03;;;8.89;100.00
28354;BME280;15603;50.878;8.036;2023-04-30T07:22:24;145399.25;;;9.03;100.00
28354;BME280;15603;50.878;8.036;2023-04-30T07:24:51;145435.69;;;9.19;100.00
28354;BME280;15603;50.878;8.036;2023-04-30T07:27:18;145441.75;;;9.21;100.00
28354;BME280;15603;50.878;8.036;2023-04-30T07:29:46;145526.78;;;9.57;100.00
28354;BME280;15603;50.878;8.036;2023-04-30T07:32:13;145568.06;;;9.75;100.00
28354;BME280;15603;50.878;8.036;2023-04-30T07:34:41;145589.94;;;9.84;100.00
28354;BME280;15603;50.878;8.036;2023-04-30T07:37:08;145631.25;;;10.01;100.00
28354;BME280;15603;50.878;8.036;2023-04-30T07:39:35;145628.78;;;10.00;100.00
28354;BME280;15603;50.878;8.036;2023-04-30T07:42:03;145730.94;;;10.44;100.00
28354;BME280;15603;50.878;8.036;2023-04-30T07:44:30;145763.75;;;10.57;99.29
28354;BME280;15603;50.878;8.036;2023-04-30T07:46:57;145806.28;;;10.75;100.00
28354;BME280;15603;50.878;8.036;2023-04-30T07:49:25;145851.25;;;10.94;98.48
28354;BME280;15603;50.878;8.036;2023-04-30T07:51:52;145913.28;;;11.20;98.24
28354;BME280;15603;50.878;8.036;2023-04-30T07:54:19;145898.69;;;11.14;97.60
28354;BME280;15603;50.878;8.036;2023-04-30T07:56:46;145976.53;;;11.47;95.59
28354;BME280;15603;50.878;8.036;2023-04-30T07:59:14;145986.25;;;11.51;95.22
28354;BME280;15603;50.878;8.036;2023-04-30T08:01:42;145994.78;;;11.55;95.78
28354;BME280;15603;50.878;8.036;2023-04-30T08:04:09;146037.31;;;11.73;95.54
28354;BME280;15603;50.878;8.036;2023-04-30T08:06:36;146107.91;;;12.03;93.07
28354;BME280;15603;50.878;8.036;2023-04-30T08:09:03;146159.06;;;12.24;93.50
28354;BME280;15603;50.878;8.036;2023-04-30T08:11:30;146142.00;;;12.17;90.62
28354;BME280;15603;50.878;8.036;2023-04-30T08:13:57;146151.72;;;12.21;91.66
28354;BME280;15603;50.878;8.036;2023-04-30T08:16:24;146206.50;;;12.44;90.89
28354;BME280;15603;50.878;8.036;2023-04-30T08:18:53;146171.19;;;12.29;90.08
28354;BME280;15603;50.878;8.036;2023-04-30T08:21:20;146212.56;;;12.47;90.02
28354;BME280;15603;50.878;8.036;2023-04-30T08:23:47;146234.47;;;12.56;88.60
28354;BME280;15603;50.878;8.036;2023-04-30T08:26:14;146285.59;;;12.77;88.60
28354;BME280;15603;50.878;8.036;2023-04-30T08:28:41;146266.13;;;12.69;84.83
28354;BME280;15603;50.878;8.036;2023-04-30T08:31:08;146351.34;;;13.05;84.08
28354;BME280;15603;50.878;8.036;2023-04-30T08:33:35;146400.03;;;13.26;81.12
28354;BME280;15603;50.878;8.036;2023-04-30T08:36:03;146442.72;;;13.44;79.97
28354;BME280;15603;50.878;8.036;2023-04-30T08:38:30;146434.19;;;13.40;79.66
28354;BME280;15603;50.878;8.036;2023-04-30T08:41:08;146463.41;;;13.52;80.20
28354;BME280;15603;50.878;8.036;2023-04-30T08:43:37;146514.56;;;13.74;82.72
28354;BME280;15603;50.878;8.036;2023-04-30T08:46:05;146476.81;;;13.58;81.17
28354;BME280;15603;50.878;8.036;2023-04-30T08:48:33;146541.38;;;13.85;78.54
28354;BME280;15603;50.878;8.036;2023-04-30T08:51:01;146512.16;;;13.73;77.57
28354;BME280;15603;50.878;8.036;2023-04-30T08:53:30;146597.44;;;14.09;71.61
28354;BME280;15603;50.878;8.036;2023-04-30T08:55:57;146627.88;;;14.22;70.39
28354;BME280;15603;50.878;8.036;2023-04-30T08:58:24;146560.88;;;13.93;65.32
28354;BME280;15603;50.878;8.036;2023-04-30T09:00:51;146545.03;;;13.87;64.69
28354;BME280;15603;50.878;8.036;2023-04-30T09:03:19;146564.50;;;13.95;62.41
28354;BME280;15603;50.878;8.036;2023-04-30T09:05:48;146563.31;;;13.94;65.11
28354;BME280;15603;50.878;8.036;2023-04-30T09:08:44;146604.72;;;14.12;63.81
28354;BME280;15603;50.878;8.036;2023-04-30T09:11:26;146648.59;;;14.30;66.11
28354;BME280;15603;50.878;8.036;2023-04-30T09:13:58;146743.72;;;14.70;64.91
28354;BME280;15603;50.878;8.036;2023-04-30T09:16:27;146780.28;;;14.86;65.35
28354;BME280;15603;50.878;8.036;2023-04-30T09:18:58;146785.16;;;14.88;60.28
28354;BME280;15603;50.878;8.036;2023-04-30T09:21:33;146840.00;;;15.11;61.35
28354;BME280;15603;50.878;8.036;2023-04-30T09:24:02;146854.63;;;15.17;59.79
28354;BME280;15603;50.878;8.036;2023-04-30T09:26:34;146816.84;;;15.01;60.67
28354;BME280;15603;50.878;8.036;2023-04-30T09:29:02;146753.47;;;14.75;57.57
28354;BME280;15603;50.878;8.036;2023-04-30T09:31:34;146716.91;;;14.59;58.62
28354;BME280;15603;50.878;8.036;2023-04-30T09:34:03;146755.88;;;14.76;58.48
28354;BME280;15603;50.878;8.036;2023-04-30T09:36:31;146807.06;;;14.97;59.87
28354;BME280;15603;50.878;8.036;2023-04-30T09:39:05;146819.25;;;15.02;60.05
28354;BME280;15603;50.878;8.036;2023-04-30T09:41:36;146853.44;;;15.17;57.23
28354;BME280;15603;50.878;8.036;2023-04-30T09:44:04;146886.34;;;15.30;57.23
28354;BME280;15603;50.878;8.036;2023-04-30T09:46:32;146994.94;;;15.76;57.93
28354;BME280;15603;50.878;8.036;2023-04-30T09:49:02;147032.72;;;15.92;56.94
28354;BME280;15603;50.878;8.036;2023-04-30T09:51:29;147041.28;;;15.96;54.98
28354;BME280;15603;50.878;8.036;2023-04-30T09:53:57;147063.19;;;16.05;55.10
28354;BME280;15603;50.878;8.036;2023-04-30T09:56:30;147115.69;;;16.27;56.17
28354;BME280;15603;50.878;8.036;2023-04-30T09:59:01;147053.44;;;16.01;57.57
28354;BME280;15603;50.878;8.036;2023-04-30T10:01:31;147070.53;;;16.08;53.78
28354;BME280;15603;50.878;8.036;2023-04-30T10:03:59;146968.06;;;15.65;53.82
28354;BME280;15603;50.878;8.036;2023-04-30T10:06:27;147009.56;;;15.82;53.29
28354;BME280;15603;50.878;8.036;2023-04-30T10:08:56;146953.38;;;15.59;51.80
28354;BME280;15603;50.878;8.036;2023-04-30T10:11:26;146950.97;;;15.58;51.69
28354;BME280;15603;50.878;8.036;2023-04-30T10:14:00;146943.63;;;15.55;51.87
28354;BME280;15603;50.878;8.036;2023-04-30T10:17:02;146946.09;;;15.56;52.52
28354;BME280;15603;50.878;8.036;2023-04-30T10:19:35;146886.34;;;15.30;53.54
28354;BME280;15603;50.878;8.036;2023-04-30T10:22:05;146924.13;;;15.46;53.26
28354;BME280;15603;50.878;8.036;2023-04-30T10:24:32;146843.63;;;15.12;51.13
28354;BME280;15603;50.878;8.036;2023-04-30T10:27:00;146890.00;;;15.32;53.18
28354;BME280;15603;50.878;8.036;2023-04-30T10:29:27;146952.16;;;15.58;51.25
28354;BME280;15603;50.878;8.036;2023-04-30T10:31:54;146930.22;;;15.49;52.03
28354;BME280;15603;50.878;8.036;2023-04-30T10:34:49;146958.28;;;15.61;50.02
28354;BME280;15603;50.878;8.036;2023-04-30T10:40:11;146907.03;;;15.39;52.87
28354;BME280;15603;50.878;8.036;2023-04-30T10:42:44;146970.47;;;15.66;53.09
28354;BME280;15603;50.878;8.036;2023-04-30T10:45:11;146936.34;;;15.51;51.42
28354;BME280;15603;50.878;8.036;2023-04-30T10:47:41;147010.78;;;15.83;50.92
28354;BME280;15603;50.878;8.036;2023-04-30T10:50:09;147020.50;;;15.87;50.57
28354;BME280;15603;50.878;8.036;2023-04-30T10:52:37;147129.09;;;16.33;53.23
28354;BME280;15603;50.878;8.036;2023-04-30T10:55:07;147151.06;;;16.42;51.36
28354;BME280;15603;50.878;8.036;2023-04-30T10:57:42;147143.75;;;16.39;50.58
28354;BME280;15603;50.878;8.036;2023-04-30T11:02:44;147193.78;;;16.60;52.08
28354;BME280;15603;50.878;8.036;2023-04-30T11:05:14;147245.03;;;16.81;51.93
28354;BME280;15603;50.878;8.036;2023-04-30T11:07:55;147309.75;;;17.08;51.74
28354;BME280;15603;50.878;8.036;2023-04-30T11:10:25;147345.16;;;17.23;51.52
28354;BME280;15603;50.878;8.036;2023-04-30T11:12:54;147365.94;;;17.32;51.73
28354;BME280;15603;50.878;8.036;2023-04-30T11:15:25;147436.75;;;17.62;50.18
28354;BME280;15603;50.878;8.036;2023-04-30T11:17:57;147550.38;;;18.10;50.90
28354;BME280;15603;50.878;8.036;2023-04-30T11:20:25;147517.41;;;17.96;48.35
28354;BME280;15603;50.878;8.036;2023-04-30T11:23:12;147501.50;;;17.89;49.14
28354;BME280;15603;50.878;8.036;2023-04-30T11:25:54;147456.28;;;17.70;48.47
28354;BME280;15603;50.878;8.036;2023-04-30T11:28:25;147436.75;;;17.62;48.95
28354;BME280;15603;50.878;8.036;2023-04-30T11:30:58;147380.59;;;17.38;48.10
28354;BME280;15603;50.878;8.036;2023-04-30T11:33:27;147396.44;;;17.45;49.91
28354;BME280;15603;50.878;8.036;2023-04-30T11:35:56;147412.34;;;17.52;47.95
28354;BME280;15603;50.878;8.036;2023-04-30T11:38:35;147473.38;;;17.77;49.72
28354;BME280;15603;50.878;8.036;2023-04-30T11:41:03;147473.38;;;17.77;53.23
28354;BME280;15603;50.878;8.036;2023-04-30T11:43:32;147518.63;;;17.96;49.24
28354;BME280;15603;50.878;8.036;2023-04-30T11:46:06;147446.50;;;17.66;47.58
28354;BME280;15603;50.878;8.036;2023-04-30T11:48:35;147519.81;;;17.97;48.08
28354;BME280;15603;50.878;8.036;2023-04-30T11:51:23;147525.91;;;17.99;47.49
28354;BME280;15603;50.878;8.036;2023-04-30T11:53:51;147431.88;;;17.60;46.50
28354;BME280;15603;50.878;8.036;2023-04-30T11:56:23;147467.28;;;17.75;46.76
28354;BME280;15603;50.878;8.036;2023-04-30T11:58:52;147502.72;;;17.90;46.50
28354;BME280;15603;50.878;8.036;2023-04-30T12:01:19;147478.25;;;17.79;45.53
28354;BME280;15603;50.878;8.036;2023-04-30T12:03:49;147409.88;;;17.51;45.65
28354;BME280;15603;50.878;8.036;2023-04-30T12:06:24;147511.28;;;17.93;45.85
28354;BME280;15603;50.878;8.036;2023-04-30T12:08:52;147503.97;;;17.90;48.10
28354;BME280;15603;50.878;8.036;2023-04-30T12:11:28;147554.06;;;18.11;46.75
28354;BME280;15603;50.878;8.036;2023-04-30T12:14:03;147596.78;;;18.29;46.22
28354;BME280;15603;50.878;8.036;2023-04-30T12:16:51;147644.41;;;18.49;46.57
28354;BME280;15603;50.878;8.036;2023-04-30T12:19:20;147664.00;;;18.57;46.01
28354;BME280;15603;50.878;8.036;2023-04-30T12:21:51;147495.41;;;17.87;44.85
28354;BME280;15603;50.878;8.036;2023-04-30T12:24:20;147470.91;;;17.76;44.32
28354;BME280;15603;50.878;8.036;2023-04-30T12:26:52;147447.72;;;17.66;44.79
28354;BME280;15603;50.878;8.036;2023-04-30T12:29:21;147450.19;;;17.67;46.46
28354;BME280;15603;50.878;8.036;2023-04-30T12:31:48;147473.38;;;17.77;47.45
28354;BME280;15603;50.878;8.036;2023-04-30T12:34:18;147555.25;;;18.12;47.33
28354;BME280;15603;50.878;8.036;2023-04-30T12:36:45;147613.91;;;18.36;46.95
28354;BME280;15603;50.878;8.036;2023-04-30T12:39:13;147701.88;;;18.73;46.33
28354;BME280;15603;50.878;8.036;2023-04-30T12:41:48;147788.69;;;19.10;45.60
28354;BME280;15603;50.878;8.036;2023-04-30T12:44:19;147722.66;;;18.82;46.35
28354;BME280;15603;50.878;8.036;2023-04-30T12:46:47;147781.34;;;19.07;45.03
28354;BME280;15603;50.878;8.036;2023-04-30T12:49:28;147818.00;;;19.22;45.62
28354;BME280;15603;50.878;8.036;2023-04-30T12:52:00;147800.88;;;19.15;47.32
28354;BME280;15603;50.878;8.036;2023-04-30T12:54:29;147808.22;;;19.18;44.87
28354;BME280;15603;50.878;8.036;2023-04-30T12:57:04;147782.53;;;19.07;42.10
28354;BME280;15603;50.878;8.036;2023-04-30T13:02:17;147752.03;;;18.94;44.01
28354;BME280;15603;50.878;8.036;2023-04-30T13:04:45;147687.22;;;18.67;46.14
28354;BME280;15603;50.878;8.036;2023-04-30T13:07:12;147627.34;;;18.42;45.10
28354;BME280;15603;50.878;8.036;2023-04-30T13:09:39;147644.41;;;18.49;45.23
28354;BME280;15603;50.878;8.036;2023-04-30T13:12:06;147695.78;;;18.71;48.40
28354;BME280;15603;50.878;8.036;2023-04-30T13:14:33;147767.88;;;19.01;47.64
28354;BME280;15603;50.878;8.036;2023-04-30T13:17:01;147749.56;;;18.93;46.02
28354;BME280;15603;50.878;8.036;2023-04-30T13:19:32;147698.19;;;18.72;46.35
28354;BME280;15603;50.878;8.036;2023-04-30T13:22:00;147634.66;;;18.45;47.79